OENG

Najran Domestic Airport

Airport
ICAO code
OENG
Summary
ICAO Region
MID
ICAO Territory
Location

Najran,

Coordinates
17° 36' 48" N , 44° 24' 53" E
KCC
Metar
Observation
OENG 271000Z 09008KT 9999 SCT030 BKN080 20/13 Q1019 NOSIG
Station
Najran
Date/Time
2023-01-27 10:00:00
Wind direction
90°
Wind speed
08 kts
Lowest cloud amount
scattered clouds
Temperature
20°C
Dew point
13°C
Humidity
64%
QNH
1019 hPa
Weather condition
n/a

Description

Najram Domestic Airport is located 30 km northeast of Najran, Saudi Arabia.

Climatology

Hot Desert Climate (Köppen climate classification BWh) - Hot desert climates are typically found in the subtropics where there is unbroken sunshine for the whole year due to the stable descending air and high pressure, little or no precipitation. Maximum temperatures of 40°C to 45°C are not uncommon, particularly during the warmer months of the year. During colder periods of the year, night-time temperatures can drop to freezing or below due to the exceptional radiation loss under the clear skies. However, very rarely do temperatures drop far below freezing.

Runways

Designator Length Width Surface Rops
6/24 3050 45 ASP Yes/Yes

Airport map

Aerial View

SKYbrary Partners:

Safety knowledge contributed by: